Ganser Bar, California
Current Conditions -  °F | °C
As of 2:15 AM on Thursday 23 Oct 2014 (Local Time) from KCIC Reporting Station
Broken Clouds Broken Clouds  
Wind Chill: 15°   Ceiling: 12000
Heat Index: 15°   Visibility: 10mi
Dew Point:   Wind: 6mph
Humidity: 67%   Direction: 320°NW
Pressure: 30.01"   Gusts: NA
Location:  40.0464°N, 121.282°W
Report Text: KCIC 230915Z AUTO 32005KT 10SM BKN120 15/09 A3001 RMK AO1
Loading
Personal Weather Stations






























Interactive Weather Map
Tropical Storm Tracking
New forecast layout! Learn more

10-Day Weather Forecast

Advertisements
Track Severe Weather on mobile